Time;durP1;ratioP1;P1;durP2;ratioP2;P2;SDS_P1;SDS_P2;PMS_P1;PMS_P2;Temp;Humidity;BMP_temperature;BMP_pressure;BME280_temperature;BME280_humidity;BME280_pressure;Samples;Min_cycle;Max_cycle;Signal;HPM_P1;HPM_P2
2023/12/01 00:01:41;;;;;;;;;;;;;;;2.50;66.65;100374.53;7363407;19;19925;-61
2023/12/01 00:04:06;;;;;;;;;;;;;;;2.48;66.83;100375.34;7364449;19;20279;-61
2023/12/01 00:06:32;;;;;;;;;;;;;;;2.47;66.71;100379.66;7362886;19;19929;-61
2023/12/01 00:08:58;;;;;;;;;;;;;;;2.44;67.03;100381.38;7362524;19;19994;-62
2023/12/01 00:11:23;;;;;;;;;;;;;;;2.44;66.81;100378.81;7365201;19;20583;-61
2023/12/01 00:13:48;;;;;;;;;;;;;;;2.42;67.05;100380.50;7360283;19;20338;-61
2023/12/01 00:16:13;;;;;;;;;;;;;;;2.39;66.86;100378.78;7358410;19;19924;-61
2023/12/01 00:18:39;;;;;;;;;;;;;;;2.37;66.91;100380.47;7363743;19;20023;-61
2023/12/01 00:21:04;;;;;;;;;;;;;;;2.34;66.91;100383.91;7363778;19;20292;-61
2023/12/01 00:23:30;;;;;;;;;;;;;;;2.31;67.11;100376.13;7362663;19;19918;-61
2023/12/01 00:25:56;;;;;;;;;;;;;;;2.30;67.07;100379.56;7358255;19;19922;-61
2023/12/01 00:28:21;;;;;;;;;;;;;;;2.29;67.06;100384.72;7361629;19;19921;-61
2023/12/01 00:30:47;;;;;;;;;;;;;;;2.27;66.73;100384.69;7362608;19;19935;-61
2023/12/01 00:33:12;;;;;;;;;;;;;;;2.26;67.13;100388.13;7366041;19;19968;-61
2023/12/01 00:35:37;;;;;;;;;;;;;;;2.25;66.85;100395.88;7362940;19;19958;-61
2023/12/01 00:38:03;;;;;;;;;;;;;;;2.23;66.98;100390.72;7366478;19;19918;-61
2023/12/01 00:40:28;;;;;;;;;;;;;;;2.22;67.32;100394.13;7363331;19;19997;-61
2023/12/01 00:42:54;;;;;;;;;;;;;;;2.21;67.32;100387.25;7357351;19;20602;-61
2023/12/01 00:45:19;;;;;;;;;;;;;;;2.19;66.85;100395.84;7366600;19;19927;-61
2023/12/01 00:47:45;;;;;;;;;;;;;;;2.17;67.29;100397.50;7359526;19;20293;-61
2023/12/01 00:50:10;;;;;;;;;;;;;;;2.14;67.34;100400.94;7363513;19;20036;-61
2023/12/01 00:52:35;;;;;;;;;;;;;;;2.14;66.91;100400.94;7361337;19;20331;-61
2023/12/01 00:55:01;;;;;;;;;;;;;;;2.13;67.03;100399.22;7362643;19;19915;-61
2023/12/01 00:57:26;;;;;;;;;;;;;;;2.11;66.91;100393.19;7367179;19;19929;-61
2023/12/01 00:59:51;;;;;;;;;;;;;;;2.10;67.19;100400.91;7363785;19;19922;-60
2023/12/01 01:02:16;;;;;;;;;;;;;;;2.08;67.33;100395.75;7362484;19;19918;-60
2023/12/01 01:04:42;;;;;;;;;;;;;;;2.07;67.20;100399.16;7368195;19;20378;-61
2023/12/01 01:07:07;;;;;;;;;;;;;;;2.03;67.16;100402.59;7367634;19;19939;-61
2023/12/01 01:09:32;;;;;;;;;;;;;;;2.03;67.34;100407.75;7365054;19;19914;-61
2023/12/01 01:11:57;;;;;;;;;;;;;;;2.01;67.13;100410.28;7364937;19;19950;-61
2023/12/01 01:14:23;;;;;;;;;;;;;;;2.00;67.22;100412.88;7372463;19;20626;-61
2023/12/01 01:16:48;;;;;;;;;;;;;;;1.99;67.08;100403.41;7364807;19;19929;-61
2023/12/01 01:19:13;;;;;;;;;;;;;;;1.97;67.57;100407.69;7364758;19;19939;-61
2023/12/01 01:21:39;;;;;;;;;;;;;;;1.96;67.56;100408.53;7359465;19;20630;-61
2023/12/01 01:24:04;;;;;;;;;;;;;;;1.95;67.22;100399.09;7367987;19;20037;-61
2023/12/01 01:26:29;;;;;;;;;;;;;;;1.95;67.61;100399.09;7362388;19;20251;-61
2023/12/01 01:28:55;;;;;;;;;;;;;;;1.93;67.36;100401.66;7367026;19;19922;-61
2023/12/01 01:31:20;;;;;;;;;;;;;;;1.94;67.28;100405.09;7357826;19;19926;-61
2023/12/01 01:33:45;;;;;;;;;;;;;;;1.94;67.40;100405.09;7364185;19;19967;-61
2023/12/01 01:36:10;;;;;;;;;;;;;;;1.93;67.68;100401.66;7361956;19;19917;-60
2023/12/01 01:38:37;;;;;;;;;;;;;;;1.92;67.41;100404.19;7364297;19;19926;-61
2023/12/01 01:41:02;;;;;;;;;;;;;;;1.92;67.73;100399.06;7359728;19;19921;-61
2023/12/01 01:43:28;;;;;;;;;;;;;;;1.90;67.34;100401.63;7363883;19;19982;-61
2023/12/01 01:45:58;;;;;;;;;;;;;;;1.89;67.40;100396.47;7369564;19;19910;-61
2023/12/01 01:48:24;;;;;;;;;;;;;;;1.88;67.42;100392.19;7365338;19;19941;-61
2023/12/01 01:50:49;;;;;;;;;;;;;;;1.86;67.64;100393.88;7359986;19;19982;-61
2023/12/01 01:53:15;;;;;;;;;;;;;;;1.85;67.25;100397.28;7362226;19;20030;-60
2023/12/01 01:55:40;;;;;;;;;;;;;;;1.83;67.21;100393.88;7360085;19;20878;-61
2023/12/01 01:58:06;;;;;;;;;;;;;;;1.81;67.28;100396.41;7362304;19;19927;-61
2023/12/01 02:00:32;;;;;;;;;;;;;;;1.79;67.82;100387.81;7361309;19;19923;-60
2023/12/01 02:02:57;;;;;;;;;;;;;;;1.78;67.56;100392.09;7366373;19;19963;-61
2023/12/01 02:05:22;;;;;;;;;;;;;;;1.77;67.51;100392.06;7360155;19;20718;-60
2023/12/01 02:07:48;;;;;;;;;;;;;;;1.76;67.79;100387.78;7363269;19;19930;-61
2023/12/01 02:10:15;;;;;;;;;;;;;;;1.75;67.85;100386.91;7363116;19;19923;-60
2023/12/01 02:12:41;;;;;;;;;;;;;;;1.73;67.61;100383.47;7363840;19;19926;-61
2023/12/01 02:15:10;;;;;;;;;;;;;;;1.73;67.41;100388.63;7365551;19;20036;-61
2023/12/01 02:17:37;;;;;;;;;;;;;;;1.71;67.51;100390.31;7378072;19;19930;-61
2023/12/01 02:20:03;;;;;;;;;;;;;;;1.71;67.64;100395.47;7370933;19;19919;-61
2023/12/01 02:22:28;;;;;;;;;;;;;;;1.71;67.48;100392.03;7369279;19;19926;-61
2023/12/01 02:24:54;;;;;;;;;;;;;;;1.70;67.66;100393.75;7364823;19;19927;-61
2023/12/01 02:27:19;;;;;;;;;;;;;;;1.69;67.53;100397.16;7372445;19;19919;-61
2023/12/01 02:29:44;;;;;;;;;;;;;;;1.69;67.81;100399.75;7375608;19;20015;-61
2023/12/01 02:32:09;;;;;;;;;;;;;;;1.67;67.87;100401.44;7365768;19;20289;-61
2023/12/01 02:34:35;;;;;;;;;;;;;;;1.67;67.56;100398.84;7365834;19;19990;-61
2023/12/01 02:37:00;;;;;;;;;;;;;;;1.67;67.91;100405.72;7370683;19;19959;-61
2023/12/01 02:39:25;;;;;;;;;;;;;;;1.67;67.61;100403.13;7366933;19;20009;-61
2023/12/01 02:41:51;;;;;;;;;;;;;;;1.67;67.60;100403.13;7366169;19;19923;-61
2023/12/01 02:44:16;;;;;;;;;;;;;;;1.67;68.00;100409.16;7364177;19;19918;-61
2023/12/01 02:46:41;;;;;;;;;;;;;;;1.68;67.56;100404.88;7377584;19;19926;-61
2023/12/01 02:49:09;;;;;;;;;;;;;;;1.69;67.83;100414.34;7362895;19;19946;-61
2023/12/01 02:51:34;;;;;;;;;;;;;;;1.69;67.87;100412.63;7371746;19;21050;-61
2023/12/01 02:54:00;;;;;;;;;;;;;;;1.69;67.98;100412.63;7367881;19;19918;-61
2023/12/01 02:56:25;;;;;;;;;;;;;;;1.70;68.04;100411.75;7366426;19;20274;-61
2023/12/01 02:58:50;;;;;;;;;;;;;;;1.69;68.01;100411.75;7355062;19;19926;-61
2023/12/01 03:01:15;;;;;;;;;;;;;;;1.67;67.88;100409.16;7378858;19;19938;-60
2023/12/01 03:03:42;;;;;;;;;;;;;;;1.67;68.03;100413.44;7366549;19;20351;-61
2023/12/01 03:06:08;;;;;;;;;;;;;;;1.64;67.66;100406.56;7368649;19;19978;-61
2023/12/01 03:08:33;;;;;;;;;;;;;;;1.64;67.55;100405.72;7366379;19;19982;-61
2023/12/01 03:10:58;;;;;;;;;;;;;;;1.62;67.66;100402.25;7366431;19;19918;-61
2023/12/01 03:13:24;;;;;;;;;;;;;;;1.60;67.43;100411.66;7369452;19;19943;-61
2023/12/01 03:15:49;;;;;;;;;;;;;;;1.58;67.87;100414.25;7354159;19;19918;-65
2023/12/01 03:18:15;;;;;;;;;;;;;;;1.56;67.51;100405.63;7364774;19;20349;-60
2023/12/01 03:20:41;;;;;;;;;;;;;;;1.53;67.88;100406.47;7368466;19;19915;-61
2023/12/01 03:23:06;;;;;;;;;;;;;;;1.52;67.78;100397.03;7373809;19;19935;-61
2023/12/01 03:25:33;;;;;;;;;;;;;;;1.50;67.46;100398.72;7364888;19;20013;-60
2023/12/01 03:27:58;;;;;;;;;;;;;;;1.49;68.05;100396.13;7372775;19;19970;-61
2023/12/01 03:30:23;;;;;;;;;;;;;;;1.47;67.94;100390.09;7374479;19;20642;-61
2023/12/01 03:32:50;;;;;;;;;;;;;;;1.45;67.87;100386.66;7373334;19;20366;-61
2023/12/01 03:35:17;;;;;;;;;;;;;;;1.42;67.60;100384.03;7368667;19;19949;-60
2023/12/01 03:37:43;;;;;;;;;;;;;;;1.40;67.51;100384.03;7366342;19;20711;-61
2023/12/01 03:40:12;;;;;;;;;;;;;;;1.40;67.91;100383.19;7366538;19;20339;-61
2023/12/01 03:42:40;;;;;;;;;;;;;;;1.37;67.85;100385.72;7366489;19;19927;-61
2023/12/01 03:45:06;;;;;;;;;;;;;;;1.35;67.77;100382.28;7367140;19;19922;-61
2023/12/01 03:47:32;;;;;;;;;;;;;;;1.34;67.91;100389.13;7364808;19;20236;-60
2023/12/01 03:49:57;;;;;;;;;;;;;;;1.32;67.79;100388.28;7366191;19;20366;-61
2023/12/01 03:52:22;;;;;;;;;;;;;;;1.30;67.99;100383.09;7363344;19;19926;-62
2023/12/01 03:54:48;;;;;;;;;;;;;;;1.29;67.96;100391.66;7365853;19;21173;-61
2023/12/01 03:57:13;;;;;;;;;;;;;;;1.27;67.92;100395.94;7368300;19;19935;-61
2023/12/01 03:59:39;;;;;;;;;;;;;;;1.25;67.89;100394.19;7361915;19;19918;-61
2023/12/01 04:02:04;;;;;;;;;;;;;;;1.24;67.92;100395.03;7372728;19;19918;-61
2023/12/01 04:04:29;;;;;;;;;;;;;;;1.22;67.62;100395.03;7368669;19;19974;-61
2023/12/01 04:06:54;;;;;;;;;;;;;;;1.20;67.82;100391.56;7365945;19;19934;-61
2023/12/01 04:09:20;;;;;;;;;;;;;;;1.20;67.75;100391.56;7364741;19;19982;-61
2023/12/01 04:11:45;;;;;;;;;;;;;;;1.17;67.67;100391.53;7369045;19;19922;-61
2023/12/01 04:14:11;;;;;;;;;;;;;;;1.16;67.90;100392.38;7362964;19;20353;-61
2023/12/01 04:16:36;;;;;;;;;;;;;;;1.14;67.70;100386.34;7339099;19;19926;-61
2023/12/01 04:19:02;;;;;;;;;;;;;;;1.12;67.69;100393.22;7365870;19;19925;-61
2023/12/01 04:21:27;;;;;;;;;;;;;;;1.12;67.94;100398.34;7354386;19;19915;-61
2023/12/01 04:23:52;;;;;;;;;;;;;;;1.09;68.29;100395.72;7367896;19;19923;-61
2023/12/01 04:26:18;;;;;;;;;;;;;;;1.07;68.15;100394.88;7364489;19;19944;-61
2023/12/01 04:28:43;;;;;;;;;;;;;;;1.06;67.95;100393.13;7367241;19;20539;-61
2023/12/01 04:31:08;;;;;;;;;;;;;;;1.04;68.14;100395.69;7356061;19;19911;-61
2023/12/01 04:33:34;;;;;;;;;;;;;;;1.03;68.23;100390.53;7366946;19;19964;-61
2023/12/01 04:35:59;;;;;;;;;;;;;;;1.01;67.85;100394.78;7362503;19;19926;-61
2023/12/01 04:38:25;;;;;;;;;;;;;;;0.99;67.91;100396.47;7369903;19;20008;-60
2023/12/01 04:40:50;;;;;;;;;;;;;;;0.98;68.03;100394.75;7366203;19;19952;-61
2023/12/01 04:43:17;;;;;;;;;;;;;;;0.97;67.99;100393.91;7361313;19;20371;-61
2023/12/01 04:45:43;;;;;;;;;;;;;;;0.94;68.00;100393.00;7362073;19;20353;-61
2023/12/01 04:48:08;;;;;;;;;;;;;;;0.93;68.31;100396.41;7371778;19;19925;-61
2023/12/01 04:50:34;;;;;;;;;;;;;;;0.92;68.24;100399.84;7363100;19;19919;-61
2023/12/01 04:53:00;;;;;;;;;;;;;;;0.90;68.09;100401.50;7362064;19;19917;-61
2023/12/01 04:55:26;;;;;;;;;;;;;;;0.90;67.95;100406.66;7365501;19;19918;-62
2023/12/01 04:57:52;;;;;;;;;;;;;;;0.87;68.02;100407.50;7363143;19;20330;-61
2023/12/01 05:00:21;;;;;;;;;;;;;;;0.86;68.41;100415.16;7363819;19;19918;-61
2023/12/01 05:02:58;;;;;;;;;;;;;;;0.83;68.47;100410.88;7363309;19;19930;-61
2023/12/01 05:05:24;;;;;;;;;;;;;;;0.83;68.48;100415.16;7363974;19;19925;-60
2023/12/01 05:07:51;;;;;;;;;;;;;;;0.80;68.23;100412.53;7360198;19;19914;-61
2023/12/01 05:10:17;;;;;;;;;;;;;;;0.79;68.36;100409.09;7368209;19;20650;-61
2023/12/01 05:12:42;;;;;;;;;;;;;;;0.77;68.14;100410.78;7370942;19;19915;-61
2023/12/01 05:15:15;;;;;;;;;;;;;;;0.74;68.52;100406.47;7369466;19;19943;-61
2023/12/01 05:17:42;;;;;;;;;;;;;;;0.73;68.15;100407.31;7364377;19;20308;-61
2023/12/01 05:20:15;;;;;;;;;;;;;;;0.73;68.33;100409.88;7363541;19;20252;-61
2023/12/01 05:22:40;;;;;;;;;;;;;;;0.71;68.25;100406.44;7361974;19;19918;-61
2023/12/01 05:25:06;;;;;;;;;;;;;;;0.71;68.45;100410.69;7367622;19;19922;-61
2023/12/01 05:27:31;;;;;;;;;;;;;;;0.69;68.25;100408.13;7367303;19;20010;-61
2023/12/01 05:29:56;;;;;;;;;;;;;;;0.68;68.66;100416.69;7359908;19;19919;-61
2023/12/01 05:32:22;;;;;;;;;;;;;;;0.68;68.58;100416.69;7361148;19;19918;-61
2023/12/01 05:34:47;;;;;;;;;;;;;;;0.67;68.46;100414.09;7360339;19;19949;-62
2023/12/01 05:37:12;;;;;;;;;;;;;;;0.66;68.15;100415.81;7363241;19;20027;-61
2023/12/01 05:39:37;;;;;;;;;;;;;;;0.65;68.33;100411.47;7363102;19;19951;-60
2023/12/01 05:42:04;;;;;;;;;;;;;;;0.64;68.64;100411.47;7342576;19;19941;-61
2023/12/01 05:44:30;;;;;;;;;;;;;;;0.64;68.49;100411.47;7367321;19;20338;-61
2023/12/01 05:46:55;;;;;;;;;;;;;;;0.63;68.47;100408.03;7362673;19;19915;-61
2023/12/01 05:49:20;;;;;;;;;;;;;;;0.62;68.65;100406.31;7359734;19;19922;-61
2023/12/01 05:51:47;;;;;;;;;;;;;;;0.62;68.72;100411.47;7364482;19;19914;-61
2023/12/01 05:54:13;;;;;;;;;;;;;;;0.61;68.28;100403.72;7366758;19;19986;-61
2023/12/01 05:56:38;;;;;;;;;;;;;;;0.60;68.63;100410.56;7365872;19;19970;-61
2023/12/01 05:59:04;;;;;;;;;;;;;;;0.60;68.56;100408.00;7360534;19;19922;-61
2023/12/01 06:01:30;;;;;;;;;;;;;;;0.59;68.55;100408.84;7366260;19;19929;-61
2023/12/01 06:03:55;;;;;;;;;;;;;;;0.59;68.41;100411.41;7359740;19;19922;-61
2023/12/01 06:06:20;;;;;;;;;;;;;;;0.59;68.34;100420.81;7364463;19;20709;-62
2023/12/01 06:08:45;;;;;;;;;;;;;;;0.57;68.65;100413.13;7364530;19;19962;-61
2023/12/01 06:11:11;;;;;;;;;;;;;;;0.56;68.57;100411.38;7365920;19;19918;-61
2023/12/01 06:13:36;;;;;;;;;;;;;;;0.56;68.75;100411.38;7365841;19;19921;-61
2023/12/01 06:16:01;;;;;;;;;;;;;;;0.55;68.37;100419.06;7358827;19;20737;-61
2023/12/01 06:18:29;;;;;;;;;;;;;;;0.41;68.65;100390.63;7363951;19;19922;-62
2023/12/01 06:20:55;;;;;;;;;;;;;;;0.53;68.51;100421.63;7368575;19;20481;-61
2023/12/01 06:23:20;;;;;;;;;;;;;;;0.53;68.84;100416.47;7368590;19;19929;-61
2023/12/01 06:25:46;;;;;;;;;;;;;;;0.52;68.36;100417.31;7362837;19;19921;-61
2023/12/01 06:28:12;;;;;;;;;;;;;;;0.50;68.53;100417.28;7356528;19;19985;-61
2023/12/01 06:30:37;;;;;;;;;;;;;;;0.50;68.54;100411.28;7359510;19;20012;-60
2023/12/01 06:33:03;;;;;;;;;;;;;;;0.49;68.46;100415.56;7359502;19;20022;-61
2023/12/01 06:35:29;;;;;;;;;;;;;;;0.49;68.60;100414.69;7362935;19;20600;-61
2023/12/01 06:37:54;;;;;;;;;;;;;;;0.49;68.66;100414.69;7357929;19;19915;-60
2023/12/01 06:40:20;;;;;;;;;;;;;;;0.48;68.64;100413.84;7359988;19;19914;-61
2023/12/01 06:42:45;;;;;;;;;;;;;;;0.48;68.56;100418.13;7359133;19;19925;-61
2023/12/01 06:45:11;;;;;;;;;;;;;;;0.47;68.54;100416.41;7365927;19;19998;-61
2023/12/01 06:47:38;;;;;;;;;;;;;;;0.47;68.50;100418.97;7363630;19;19982;-61
2023/12/01 06:50:03;;;;;;;;;;;;;;;0.46;68.71;100415.53;7358202;19;19952;-61
2023/12/01 06:52:29;;;;;;;;;;;;;;;0.45;68.53;100418.94;7359454;19;20301;-61
2023/12/01 06:54:54;;;;;;;;;;;;;;;0.44;68.55;100416.34;7363354;19;20302;-61
2023/12/01 06:57:19;;;;;;;;;;;;;;;0.41;68.57;100403.47;7362583;19;19921;-61
2023/12/01 06:59:44;;;;;;;;;;;;;;;0.44;68.84;100408.63;7357259;19;19986;-61
2023/12/01 07:02:10;;;;;;;;;;;;;;;0.43;68.76;100414.63;7369978;19;19919;-61
2023/12/01 07:04:35;;;;;;;;;;;;;;;0.43;68.79;100417.19;7367029;19;20353;-61
2023/12/01 07:07:00;;;;;;;;;;;;;;;0.41;68.83;100413.75;7369014;19;19946;-61
2023/12/01 07:09:26;;;;;;;;;;;;;;;0.42;68.84;100412.91;7364671;19;19918;-61
2023/12/01 07:11:52;;;;;;;;;;;;;;;0.41;68.66;100408.63;7381845;19;19990;-61
2023/12/01 07:14:18;;;;;;;;;;;;;;;0.40;68.82;100420.56;7368207;19;19986;-61
2023/12/01 07:16:43;;;;;;;;;;;;;;;0.39;69.01;100418.84;7372848;19;19984;-62
2023/12/01 07:19:10;;;;;;;;;;;;;;;0.37;68.84;100417.13;7370062;19;20594;-62
2023/12/01 07:21:35;;;;;;;;;;;;;;;0.36;68.82;100420.53;7372507;19;19936;-61
2023/12/01 07:24:02;;;;;;;;;;;;;;;0.35;68.70;100421.34;7369091;19;19950;-61
2023/12/01 07:26:27;;;;;;;;;;;;;;;0.35;68.66;100421.34;7367916;19;19915;-61
2023/12/01 07:28:53;;;;;;;;;;;;;;;0.35;68.90;100431.63;7367836;19;20351;-61
2023/12/01 07:31:18;;;;;;;;;;;;;;;0.34;68.78;100427.34;7367284;19;19918;-61
2023/12/01 07:33:43;;;;;;;;;;;;;;;0.35;68.72;100436.75;7369611;19;19929;-62
2023/12/01 07:36:09;;;;;;;;;;;;;;;0.35;68.92;100434.19;7365129;19;19942;-61
2023/12/01 07:38:34;;;;;;;;;;;;;;;0.36;69.00;100438.50;7373944;19;20801;-61
2023/12/01 07:41:00;;;;;;;;;;;;;;;0.35;68.74;100445.31;7368296;19;19918;-61
2023/12/01 07:43:26;;;;;;;;;;;;;;;0.36;68.66;100449.66;7365327;19;19937;-61
2023/12/01 07:45:51;;;;;;;;;;;;;;;0.37;68.98;100447.94;7368273;19;19922;-61
2023/12/01 07:48:16;;;;;;;;;;;;;;;0.37;68.87;100445.38;7360849;19;19926;-62
2023/12/01 07:50:41;;;;;;;;;;;;;;;0.37;69.07;100445.38;7358846;19;20242;-61
2023/12/01 07:53:07;;;;;;;;;;;;;;;0.35;68.87;100449.59;7364642;19;19930;-61
2023/12/01 07:55:33;;;;;;;;;;;;;;;0.36;69.03;100454.78;7360643;19;19910;-61
2023/12/01 07:57:58;;;;;;;;;;;;;;;0.36;68.78;100454.78;7366915;19;19927;-61
2023/12/01 08:00:24;;;;;;;;;;;;;;;0.35;68.92;100458.16;7360027;19;19927;-61
2023/12/01 08:02:52;;;;;;;;;;;;;;;0.36;68.96;100466.75;7364840;19;19930;-61
2023/12/01 08:05:17;;;;;;;;;;;;;;;0.36;68.67;100474.47;7366009;19;19926;-61
2023/12/01 08:07:51;;;;;;;;;;;;;;;0.35;69.07;100465.00;7367691;19;19930;-61
2023/12/01 08:10:17;;;;;;;;;;;;;;;0.35;68.76;100470.16;7364133;19;20362;-61
2023/12/01 08:12:42;;;;;;;;;;;;;;;0.34;68.69;100471.84;7364262;19;19918;-62
2023/12/01 08:15:08;;;;;;;;;;;;;;;0.35;68.99;100472.72;7367521;19;20405;-61
2023/12/01 08:17:33;;;;;;;;;;;;;;;0.33;68.78;100465.00;7367321;19;19915;-61
2023/12/01 08:19:58;;;;;;;;;;;;;;;0.35;68.88;100472.72;7365923;19;20012;-61
2023/12/01 08:22:24;;;;;;;;;;;;;;;0.33;69.12;100469.28;7366495;19;20347;-61
2023/12/01 08:24:50;;;;;;;;;;;;;;;0.34;68.78;100479.56;7366653;19;19923;-61
2023/12/01 08:27:15;;;;;;;;;;;;;;;0.36;68.88;100479.59;7363013;19;19986;-60
2023/12/01 08:29:41;;;;;;;;;;;;;;;0.36;69.28;100482.16;7352564;19;20718;-61
2023/12/01 08:32:06;;;;;;;;;;;;;;;0.37;69.18;100481.31;7336462;19;19922;-62
2023/12/01 08:34:31;;;;;;;;;;;;;;;0.40;68.94;100489.06;7362013;19;19939;-62
2023/12/01 08:36:56;;;;;;;;;;;;;;;0.41;69.15;100491.69;7364075;19;19923;-61
2023/12/01 08:39:22;;;;;;;;;;;;;;;0.42;69.28;100488.25;7362440;19;19938;-62
2023/12/01 08:41:48;;;;;;;;;;;;;;;0.44;69.27;100494.25;7357711;19;20013;-61
2023/12/01 08:44:13;;;;;;;;;;;;;;;0.46;69.03;100486.59;7354465;19;19926;-61
2023/12/01 08:46:38;;;;;;;;;;;;;;;0.48;69.17;100492.63;7364639;19;19945;-61
2023/12/01 08:49:04;;;;;;;;;;;;;;;0.50;69.24;100493.50;7360622;19;19998;-61
2023/12/01 08:51:29;;;;;;;;;;;;;;;0.53;69.31;100485.84;7364003;19;19914;-61
2023/12/01 08:53:55;;;;;;;;;;;;;;;0.56;69.47;100488.47;7358249;19;19938;-61
2023/12/01 08:56:20;;;;;;;;;;;;;;;0.58;69.33;100486.78;7360525;19;19932;-62
2023/12/01 08:58:45;;;;;;;;;;;;;;;0.60;69.10;100495.34;7359225;19;19919;-61
2023/12/01 09:01:10;;;;;;;;;;;;;;;0.64;69.48;100497.13;7360004;19;19923;-62
2023/12/01 09:03:36;;;;;;;;;;;;;;;0.59;69.53;100488.50;7364549;19;19918;-61
2023/12/01 09:06:04;;;;;;;;;;;;;;;0.68;69.41;100504.03;7352294;19;19938;-61
2023/12/01 09:08:29;;;;;;;;;;;;;;;0.70;69.32;100507.50;7362154;19;19922;-61
2023/12/01 09:10:55;;;;;;;;;;;;;;;0.74;69.19;100509.25;7355165;19;19921;-61
2023/12/01 09:13:20;;;;;;;;;;;;;;;0.76;69.19;100502.47;7362130;19;19925;-61
2023/12/01 09:15:45;;;;;;;;;;;;;;;0.79;69.61;100506.75;7360970;19;20322;-61
2023/12/01 09:18:10;;;;;;;;;;;;;;;0.84;69.40;100511.97;7364920;19;19946;-61
2023/12/01 09:20:36;;;;;;;;;;;;;;;0.86;69.69;100521.41;7359258;19;19926;-61
2023/12/01 09:23:01;;;;;;;;;;;;;;;0.90;69.44;100512.03;7367450;19;19927;-61
2023/12/01 09:25:26;;;;;;;;;;;;;;;0.92;69.46;100523.22;7358095;19;19985;-61
2023/12/01 09:27:52;;;;;;;;;;;;;;;0.93;69.51;100520.66;7358352;19;19919;-61
2023/12/01 09:30:18;;;;;;;;;;;;;;;0.97;69.33;100524.16;7362327;19;19924;-61
2023/12/01 09:32:44;;;;;;;;;;;;;;;0.99;69.41;100530.16;7363438;19;19931;-61
2023/12/01 09:35:09;;;;;;;;;;;;;;;1.01;69.54;100528.47;7363964;19;19934;-60
2023/12/01 09:37:34;;;;;;;;;;;;;;;1.03;69.67;100527.66;7361575;19;19929;-61
2023/12/01 09:40:02;;;;;;;;;;;;;;;1.05;69.18;100530.25;7362562;19;20276;-61
2023/12/01 09:42:28;;;;;;;;;;;;;;;1.08;69.51;100530.31;7355857;19;19926;-61
2023/12/01 09:44:54;;;;;;;;;;;;;;;1.10;69.30;100533.75;7359473;19;19922;-61
2023/12/01 09:47:20;;;;;;;;;;;;;;;1.12;69.41;100539.78;7359736;19;19921;-61
2023/12/01 09:49:48;;;;;;;;;;;;;;;1.03;69.62;100513.94;7357194;19;19948;-61
2023/12/01 09:52:13;;;;;;;;;;;;;;;1.18;69.55;100537.28;7356033;19;20880;-61
2023/12/01 09:54:38;;;;;;;;;;;;;;;1.22;69.61;100541.63;7359206;19;19925;-61
2023/12/01 09:57:07;;;;;;;;;;;;;;;1.26;69.93;100545.94;7363412;19;19919;-61
2023/12/01 09:59:36;;;;;;;;;;;;;;;1.32;69.70;100544.28;7352647;19;19918;-61
2023/12/01 10:02:02;;;;;;;;;;;;;;;1.37;69.79;100538.38;7357157;19;19915;-61
2023/12/01 10:04:28;;;;;;;;;;;;;;;1.44;70.03;100545.31;7353650;19;19946;-60
2023/12/01 10:06:54;;;;;;;;;;;;;;;1.44;69.72;100536.75;7358294;19;20519;-60
2023/12/01 10:09:25;;;;;;;;;;;;;;;1.52;69.91;100541.13;7356004;19;19914;-61
2023/12/01 10:12:03;;;;;;;;;;;;;;;1.57;69.89;100546.31;7352842;19;19954;-61
2023/12/01 10:14:29;;;;;;;;;;;;;;;1.62;69.80;100549.78;7347478;19;20730;-62
2023/12/01 10:17:00;;;;;;;;;;;;;;;1.67;69.41;100552.44;7335235;19;19922;-62
2023/12/01 10:19:25;;;;;;;;;;;;;;;1.72;69.46;100550.75;7337833;19;19950;-61
2023/12/01 10:21:51;;;;;;;;;;;;;;;1.76;69.40;100543.09;7354721;19;19918;-61
2023/12/01 10:24:17;;;;;;;;;;;;;;;1.82;69.61;100547.44;7352745;19;19918;-62
2023/12/01 10:26:46;;;;;;;;;;;;;;;1.87;69.87;100550.06;7356011;19;19922;-61
2023/12/01 10:29:30;;;;;;;;;;;;;;;1.93;69.76;100550.16;7353663;19;19930;-60
2023/12/01 10:32:07;;;;;;;;;;;;;;;2.00;69.96;100555.34;7358507;19;19919;-61
2023/12/01 10:34:32;;;;;;;;;;;;;;;2.06;69.78;100546.81;7358766;19;19927;-61
2023/12/01 10:36:57;;;;;;;;;;;;;;;2.12;69.83;100549.44;7365386;19;19920;-61
2023/12/01 10:39:29;;;;;;;;;;;;;;;2.16;70.10;100548.63;7359072;19;19930;-61
2023/12/01 10:41:55;;;;;;;;;;;;;;;2.22;69.65;100546.09;7363678;19;19934;-61
2023/12/01 10:44:22;;;;;;;;;;;;;;;2.27;69.98;100539.28;7360424;19;20077;-61
2023/12/01 10:46:48;;;;;;;;;;;;;;;2.33;70.19;100547.09;7359995;19;20243;-60
2023/12/01 10:49:14;;;;;;;;;;;;;;;2.40;69.66;100552.28;7361334;19;20019;-61
2023/12/01 10:51:41;;;;;;;;;;;;;;;2.45;69.91;100556.63;7366339;19;19925;-61
2023/12/01 10:54:09;;;;;;;;;;;;;;;2.45;69.71;100546.31;7362377;19;19954;-60
2023/12/01 10:56:37;;;;;;;;;;;;;;;2.58;70.16;100552.41;7357925;19;20332;-60
2023/12/01 10:59:03;;;;;;;;;;;;;;;2.65;69.97;100551.63;7357194;19;19939;-61
2023/12/01 11:01:29;;;;;;;;;;;;;;;2.73;70.25;100552.50;7365935;19;19914;-60
2023/12/01 11:03:55;;;;;;;;;;;;;;;2.83;69.97;100564.63;7362652;19;19927;-61
2023/12/01 11:06:30;;;;;;;;;;;;;;;2.95;70.30;100568.16;7356609;19;19964;-61
2023/12/01 11:09:14;;;;;;;;;;;;;;;3.12;70.17;100558.78;7371996;19;19919;-60
2023/12/01 11:11:39;;;;;;;;;;;;;;;3.30;70.50;100565.75;7363962;19;19952;-60
2023/12/01 11:14:14;;;;;;;;;;;;;;;3.46;70.88;100559.81;7340248;19;19910;-61
2023/12/01 11:16:42;;;;;;;;;;;;;;;3.67;71.02;100556.44;7362836;19;19926;-61
2023/12/01 11:19:08;;;;;;;;;;;;;;;3.88;71.86;100543.56;7361415;19;19918;-61
2023/12/01 11:21:33;;;;;;;;;;;;;;;4.30;72.18;100547.06;7364090;19;20310;-60
2023/12/01 11:24:22;;;;;;;;;;;;;;;4.77;73.56;100550.50;7358847;19;19910;-60
2023/12/01 11:26:48;;;;;;;;;;;;;;;5.30;72.34;100547.75;7360825;19;19918;-61
2023/12/01 11:29:29;;;;;;;;;;;;;;;5.79;72.88;100539.78;7363016;19;19918;-61
2023/12/01 11:31:57;;;;;;;;;;;;;;;6.34;72.01;100542.03;7358750;19;20245;-61
2023/12/01 11:34:24;;;;;;;;;;;;;;;6.80;71.95;100544.22;7364647;19;19986;-61
2023/12/01 11:36:50;;;;;;;;;;;;;;;7.22;71.61;100544.63;7366953;19;20349;-61
2023/12/01 11:41:53;;;;;;;;;;;;;;;7.92;70.26;100538.50;7369077;19;19942;-61
2023/12/01 11:44:29;;;;;;;;;;;;;;;8.25;70.27;100536.28;7360544;19;19915;-61
2023/12/01 11:46:58;;;;;;;;;;;;;;;8.57;70.03;100535.81;7358565;19;19929;-61
2023/12/01 11:49:31;;;;;;;;;;;;;;;8.83;68.94;100535.34;7364623;19;19915;-61
2023/12/01 11:52:00;;;;;;;;;;;;;;;9.01;68.15;100539.31;7363599;19;20641;-61
2023/12/01 11:54:26;;;;;;;;;;;;;;;9.12;67.78;100534.75;7356597;19;20284;-61
2023/12/01 11:56:55;;;;;;;;;;;;;;;9.17;67.58;100539.88;7365698;19;19937;-61
2023/12/01 11:59:20;;;;;;;;;;;;;;;9.15;67.00;100533.84;7364740;19;19914;-61
2023/12/01 12:01:46;;;;;;;;;;;;;;;9.10;66.89;100531.34;7365544;19;19927;-61
2023/12/01 12:04:16;;;;;;;;;;;;;;;9.01;66.51;100529.75;7366077;19;20742;-62
2023/12/01 12:06:42;;;;;;;;;;;;;;;8.92;66.67;100529.97;7365414;19;19967;-60
2023/12/01 12:09:08;;;;;;;;;;;;;;;8.84;66.64;100521.41;7359633;19;19919;-60
2023/12/01 12:11:35;;;;;;;;;;;;;;;8.73;66.98;100524.22;7367790;19;19933;-60
2023/12/01 12:14:04;;;;;;;;;;;;;;;8.64;66.76;100523.53;7370388;19;19918;-61
2023/12/01 12:16:30;;;;;;;;;;;;;;;8.56;67.08;100532.31;7369251;19;19934;-61
2023/12/01 12:18:59;;;;;;;;;;;;;;;8.48;67.11;100521.19;7348139;19;19971;-61
2023/12/01 12:21:24;;;;;;;;;;;;;;;8.43;67.52;100519.56;7365947;19;20003;-61
2023/12/01 12:23:50;;;;;;;;;;;;;;;8.40;67.41;100522.19;7360416;19;20009;-60
2023/12/01 12:26:16;;;;;;;;;;;;;;;8.36;67.29;100523.09;7364624;19;19922;-61
2023/12/01 12:28:42;;;;;;;;;;;;;;;8.31;67.68;100517.97;7361303;19;20758;-61
2023/12/01 12:31:08;;;;;;;;;;;;;;;8.29;67.70;100522.34;7365537;19;19918;-61
2023/12/01 12:33:35;;;;;;;;;;;;;;;8.26;67.43;100517.19;7359096;19;20295;-61
2023/12/01 12:36:01;;;;;;;;;;;;;;;8.22;67.79;100510.31;7363368;19;19934;-60
2023/12/01 12:38:26;;;;;;;;;;;;;;;8.19;67.67;100511.22;7365590;19;19949;-61
2023/12/01 12:40:52;;;;;;;;;;;;;;;8.20;68.25;100506.88;7360498;19;19914;-61
2023/12/01 12:43:20;;;;;;;;;;;;;;;8.27;68.33;100511.13;7363488;19;19922;-61
2023/12/01 12:45:45;;;;;;;;;;;;;;;8.38;68.39;100511.81;7366730;19;20408;-61